Time;durP1;ratioP1;P1;durP2;ratioP2;P2;SDS_P1;SDS_P2;PMS_P1;PMS_P2;Temp;Humidity;BMP_temperature;BMP_pressure;BME280_temperature;BME280_humidity;BME280_pressure;Samples;Min_cycle;Max_cycle;Signal;HPM_P1;HPM_P2
2023/01/01 00:01:08;;;;;;;24.05;15.73;;;;;;;;;;5057339;28;20066;-61
2023/01/01 00:03:34;;;;;;;23.85;12.38;;;;;;;;;;5056364;28;20055;-61
2023/01/01 00:06:05;;;;;;;24.92;12.63;;;;;;;;;;5073259;28;20040;-62
2023/01/01 00:08:31;;;;;;;23.00;11.52;;;;;;;;;;5054612;28;20419;-62
2023/01/01 00:11:00;;;;;;;28.58;15.23;;;;;;;;;;5069479;28;20040;-62
2023/01/01 00:13:26;;;;;;;31.52;16.38;;;;;;;;;;5055894;28;20051;-62
2023/01/01 00:15:52;;;;;;;26.30;13.48;;;;;;;;;;5073494;28;20037;-62
2023/01/01 00:18:18;;;;;;;27.48;15.05;;;;;;;;;;5074046;28;20044;-63
2023/01/01 00:20:44;;;;;;;24.63;14.20;;;;;;;;;;5074097;28;20048;-62
2023/01/01 00:23:11;;;;;;;24.95;15.20;;;;;;;;;;5038280;28;20040;-62
2023/01/01 00:25:39;;;;;;;27.63;16.65;;;;;;;;;;5039283;28;20063;-62
2023/01/01 00:28:06;;;;;;;21.05;11.65;;;;;;;;;;5056904;28;20060;-62
2023/01/01 00:30:32;;;;;;;22.17;10.40;;;;;;;;;;5073421;28;20057;-61
2023/01/01 00:32:58;;;;;;;28.63;13.38;;;;;;;;;;5073564;28;20048;-62
2023/01/01 00:35:25;;;;;;;22.55;12.50;;;;;;;;;;5055397;28;20374;-61
2023/01/01 00:37:51;;;;;;;29.17;14.88;;;;;;;;;;5071988;28;20658;-62
2023/01/01 00:40:20;;;;;;;26.05;14.88;;;;;;;;;;5073589;28;20051;-62
2023/01/01 00:42:46;;;;;;;29.80;16.45;;;;;;;;;;5055957;28;20443;-63
2023/01/01 00:45:12;;;;;;;29.15;17.40;;;;;;;;;;5071280;28;20076;-61
2023/01/01 00:47:38;;;;;;;28.13;15.88;;;;;;;;;;5073491;28;20094;-61
2023/01/01 00:50:04;;;;;;;23.58;13.43;;;;;;;;;;5055453;28;20063;-62
2023/01/01 00:52:30;;;;;;;27.27;16.00;;;;;;;;;;5038692;28;20044;-62
2023/01/01 00:54:56;;;;;;;38.92;18.98;;;;;;;;;;5071013;28;20056;-61
2023/01/01 00:57:22;;;;;;;31.50;16.67;;;;;;;;;;5073410;28;20057;-61
2023/01/01 00:59:49;;;;;;;32.63;19.23;;;;;;;;;;5073360;28;20052;-62
2023/01/01 01:02:15;;;;;;;33.22;18.63;;;;;;;;;;5073312;28;20044;-62
2023/01/01 01:04:41;;;;;;;38.78;19.60;;;;;;;;;;5072363;28;20055;-63
2023/01/01 01:07:07;;;;;;;35.72;18.10;;;;;;;;;;5072788;28;20123;-62
2023/01/01 01:09:33;;;;;;;25.55;15.43;;;;;;;;;;5072912;28;20096;-61
2023/01/01 01:11:59;;;;;;;37.38;21.50;;;;;;;;;;5054695;28;20052;-61
2023/01/01 01:14:25;;;;;;;33.28;20.38;;;;;;;;;;5053812;28;20416;-62
2023/01/01 01:16:52;;;;;;;35.50;20.95;;;;;;;;;;5055361;28;20044;-62
2023/01/01 01:19:19;;;;;;;37.40;20.90;;;;;;;;;;5072436;28;20060;-62
2023/01/01 01:21:46;;;;;;;35.65;16.08;;;;;;;;;;5071827;28;20040;-62
2023/01/01 01:24:12;;;;;;;29.52;17.13;;;;;;;;;;5054756;28;20084;-62
2023/01/01 01:26:40;;;;;;;28.67;15.65;;;;;;;;;;5053629;28;20048;-62
2023/01/01 01:29:06;;;;;;;39.95;23.05;;;;;;;;;;5072283;28;20419;-62
2023/01/01 01:31:33;;;;;;;33.38;19.35;;;;;;;;;;5055441;28;20400;-62
2023/01/01 01:34:00;;;;;;;42.13;24.83;;;;;;;;;;5072418;28;20056;-62
2023/01/01 01:36:26;;;;;;;39.80;23.88;;;;;;;;;;5070465;28;20129;-62
2023/01/01 01:38:52;;;;;;;49.00;28.75;;;;;;;;;;5072551;28;20048;-62
2023/01/01 01:41:20;;;;;;;44.17;24.13;;;;;;;;;;5055333;28;20048;-62
2023/01/01 01:43:50;;;;;;;42.03;25.73;;;;;;;;;;5072104;28;20432;-62
2023/01/01 01:46:25;;;;;;;36.13;21.30;;;;;;;;;;5054226;28;20721;-62
2023/01/01 01:48:52;;;;;;;44.67;24.90;;;;;;;;;;5054217;28;20041;-62
2023/01/01 01:51:21;;;;;;;38.58;23.48;;;;;;;;;;5071613;28;20573;-62
2023/01/01 01:53:54;;;;;;;38.22;22.40;;;;;;;;;;5054195;28;20076;-62
2023/01/01 01:56:23;;;;;;;30.92;17.70;;;;;;;;;;5071638;28;20106;-62
2023/01/01 01:58:49;;;;;;;36.90;19.75;;;;;;;;;;5071495;28;20477;-62
2023/01/01 02:01:15;;;;;;;33.60;17.30;;;;;;;;;;5038062;28;20060;-62
2023/01/01 02:03:44;;;;;;;28.95;15.85;;;;;;;;;;5037678;28;20052;-63
2023/01/01 02:06:11;;;;;;;31.23;13.98;;;;;;;;;;5070997;28;20045;-62
2023/01/01 02:08:37;;;;;;;34.45;18.02;;;;;;;;;;5052446;28;20049;-62
2023/01/01 02:11:03;;;;;;;34.47;18.63;;;;;;;;;;5071838;28;20080;-62
2023/01/01 02:13:29;;;;;;;29.23;16.67;;;;;;;;;;5071743;28;20390;-62
2023/01/01 02:16:01;;;;;;;28.63;14.48;;;;;;;;;;5053817;28;20094;-63
2023/01/01 02:18:50;;;;;;;25.63;14.23;;;;;;;;;;5070764;28;20097;-62
2023/01/01 02:21:21;;;;;;;25.58;14.20;;;;;;;;;;5054101;28;20044;-62
2023/01/01 02:23:54;;;;;;;26.83;13.25;;;;;;;;;;5020929;28;20127;-62
2023/01/01 02:26:37;;;;;;;27.42;14.20;;;;;;;;;;5069860;28;20060;-63
2023/01/01 02:29:12;;;;;;;24.35;11.95;;;;;;;;;;5052184;28;20051;-62
2023/01/01 02:31:41;;;;;;;21.42;11.43;;;;;;;;;;5072318;28;20048;-62
2023/01/01 02:34:09;;;;;;;20.55;12.10;;;;;;;;;;5036197;28;20044;-64
2023/01/01 02:36:38;;;;;;;22.90;10.00;;;;;;;;;;5051496;28;20140;-62
2023/01/01 02:39:08;;;;;;;19.65;8.95;;;;;;;;;;5071873;28;20041;-62
2023/01/01 02:41:38;;;;;;;16.67;9.70;;;;;;;;;;5053348;28;20493;-62
2023/01/01 02:44:04;;;;;;;19.75;8.35;;;;;;;;;;5054464;28;20048;-62
2023/01/01 02:46:31;;;;;;;14.10;7.30;;;;;;;;;;5070858;28;20040;-62
2023/01/01 02:48:57;;;;;;;20.17;8.77;;;;;;;;;;5053981;28;20040;-62
2023/01/01 02:51:27;;;;;;;25.85;8.77;;;;;;;;;;5070987;28;20072;-62
2023/01/01 02:54:02;;;;;;;18.23;7.78;;;;;;;;;;5071247;28;20041;-62
2023/01/01 02:56:46;;;;;;;20.05;7.68;;;;;;;;;;5070592;28;20044;-63
2023/01/01 03:02:45;;;;;;;12.27;5.55;;;13.70;99.90;;;;;;5073954;28;20102;-63
2023/01/01 03:05:18;;;;;;;14.15;5.63;;;;;;;;;;5057926;28;20045;-63
2023/01/01 03:07:57;;;;;;;15.35;5.32;;;;;;;;;;5072855;28;20045;-63
2023/01/01 03:10:23;;;;;;;16.10;4.88;;;;;;;;;;5057532;28;20048;-62
2023/01/01 03:12:52;;;;;;;12.15;5.28;;;;;;;;;;5058167;28;20045;-62
2023/01/01 03:15:40;;;;;;;8.63;3.80;;;;;;;;;;5040995;28;20408;-62
2023/01/01 03:18:18;;;;;;;7.55;3.90;;;;;;;;;;5074921;28;20044;-62
2023/01/01 03:20:46;;;;;;;8.52;3.08;;;;;;;;;;5041129;28;20051;-62
2023/01/01 03:23:19;;;;;;;11.00;3.22;;;;;;;;;;5057244;28;20489;-63
2023/01/01 03:25:48;;;;;;;12.93;4.13;;;;;;;;;;5073190;28;20048;-62
2023/01/01 03:28:16;;;;;;;10.45;2.85;;;;;;;;;;5051787;28;20055;-62
2023/01/01 03:30:44;;;;;;;13.48;4.22;;;;;;;;;;5057215;28;20044;-62
2023/01/01 03:33:21;;;;;;;12.23;3.58;;;;;;;;;;5056855;28;20097;-63
2023/01/01 03:39:00;;;;;;;;;;;12.80;99.90;;;;;;5013768;28;20061;-62
2023/01/01 03:41:37;;;;;;;22.08;3.75;;;;;;;;;;5015194;28;19993;-62
2023/01/01 03:44:06;;;;;;;14.93;4.25;;;;;;;;;;5001039;28;20050;-62
2023/01/01 03:46:35;;;;;;;10.98;3.70;;;;;;;;;;5027777;28;20104;-62
2023/01/01 03:49:02;;;;;;;11.82;4.13;;;;;;;;;;5021143;28;20049;-63
2023/01/01 03:52:00;;;;;;;13.15;3.42;;;12.30;99.90;;;;;;5039679;28;20081;-62
2023/01/01 03:54:36;;;;;;;11.15;3.40;;;;;;;;;;4995397;28;20081;-62
2023/01/01 03:57:06;;;;;;;16.15;4.65;;;;;;;;;;5011884;28;20053;-62
2023/01/01 03:59:52;;;;;;;9.68;4.22;;;;;;;;;;5014819;28;20041;-62
2023/01/01 04:02:20;;;;;;;15.57;3.67;;;;;;;;;;5015056;28;20050;-62
2023/01/01 04:04:48;;;;;;;10.48;3.53;;;;;;;;;;5000935;28;20212;-62
2023/01/01 04:07:14;;;;;;;11.90;3.63;;;;;;;;;;5011607;28;20046;-62
2023/01/01 04:09:42;;;;;;;11.50;3.33;;;;;;;;;;4997047;28;20089;-63
2023/01/01 04:12:09;;;;;;;18.17;4.07;;;;;;;;;;4997244;28;20049;-62
2023/01/01 04:14:35;;;;;;;13.13;4.03;;;;;;;;;;5008140;28;20100;-62
2023/01/01 04:17:02;;;;;;;16.35;4.18;;;;;;;;;;5014791;28;20052;-62
2023/01/01 04:19:28;;;;;;;15.10;3.45;;;;;;;;;;4997749;28;20050;-62
2023/01/01 04:21:54;;;;;;;6.80;2.67;;;;;;;;;;5014502;28;20081;-61
2023/01/01 04:24:21;;;;;;;12.93;3.47;;;;;;;;;;5014235;28;20120;-62
2023/01/01 04:26:48;;;;;;;14.02;3.13;;;;;;;;;;5038754;28;20073;-61
2023/01/01 04:29:14;;;;;;;14.07;3.08;;;;;;;;;;5013891;28;20056;-62
2023/01/01 04:31:40;;;;;;;7.82;2.42;;;;;;;;;;5014513;28;20050;-62
2023/01/01 04:34:06;;;;;;;8.38;2.58;;;;;;;;;;5013359;28;20084;-62
2023/01/01 04:36:33;;;;;;;11.75;3.33;;;;;;;;;;5028002;28;20057;-62
2023/01/01 04:38:59;;;;;;;7.40;2.53;;;;;;;;;;5022468;28;20148;-62
2023/01/01 04:41:25;;;;;;;8.45;2.72;;;;;;;;;;5005802;28;20446;-62
2023/01/01 04:43:51;;;;;;;12.68;2.30;;;;;;;;;;5013023;28;20401;-63
2023/01/01 04:46:18;;;;;;;12.45;2.63;;;;;;;;;;5012760;28;20499;-62
2023/01/01 04:48:45;;;;;;;9.68;3.45;;;;;;;;;;5013959;28;20124;-62
2023/01/01 04:51:11;;;;;;;11.77;2.63;;;;;;;;;;5018144;28;20041;-62
2023/01/01 04:53:37;;;;;;;7.03;2.20;;;;;;;;;;5033777;28;20072;-62
2023/01/01 04:56:14;;;;;;;12.68;3.35;;;;;;;;;;5026236;28;20046;-62
2023/01/01 04:58:41;;;;;;;15.18;2.50;;;;;;;;;;5013439;28;20038;-63
2023/01/01 05:01:07;;;;;;;7.97;2.40;;;;;;;;;;5009146;28;20133;-62
2023/01/01 05:03:34;;;;;;;14.90;3.08;;;;;;;;;;4999378;28;20038;-62
2023/01/01 05:06:04;;;;;;;7.13;2.53;;;;;;;;;;5010700;28;20057;-62
2023/01/01 05:08:31;;;;;;;13.77;3.15;;;;;;;;;;5033217;28;20118;-63
2023/01/01 05:11:04;;;;;;;13.38;2.55;;;;;;;;;;5013709;28;20050;-62
2023/01/01 05:13:30;;;;;;;7.72;1.92;;;;;;;;;;5020220;28;20050;-61
2023/01/01 05:15:56;;;;;;;9.75;2.35;;;;;;;;;;5014009;28;20042;-61
2023/01/01 05:18:22;;;;;;;8.57;1.40;;;;;;;;;;5016067;28;20104;-61
2023/01/01 05:20:48;;;;;;;9.23;2.35;;;;;;;;;;5012363;28;20049;-61
2023/01/01 05:23:16;;;;;;;6.55;1.23;;;;;;;;;;5012516;28;20143;-61
2023/01/01 05:25:43;;;;;;;7.38;1.55;;;;;;;;;;5030821;28;20046;-61
2023/01/01 05:28:09;;;;;;;4.65;1.30;;;;;;;;;;5011495;28;20085;-61
2023/01/01 05:30:38;;;;;;;4.28;1.67;;;;;;;;;;5013571;28;20100;-61
2023/01/01 05:33:04;;;;;;;9.27;1.20;;;;;;;;;;5011945;28;20072;-61
2023/01/01 05:35:30;;;;;;;8.20;1.73;;;;;;;;;;5016876;28;20037;-61
2023/01/01 05:37:56;;;;;;;5.03;1.50;;;;;;;;;;5030568;28;20057;-61
2023/01/01 05:40:22;;;;;;;4.43;1.42;;;;;;;;;;5043629;28;20042;-61
2023/01/01 05:42:49;;;;;;;5.68;1.40;;;;;;;;;;5027938;28;20104;-61
2023/01/01 05:45:15;;;;;;;8.75;1.45;;;;;;;;;;5019955;28;20091;-61
2023/01/01 05:47:41;;;;;;;6.35;1.70;;;;;;;;;;5014291;28;20046;-62
2023/01/01 05:50:08;;;;;;;5.30;1.65;;;;;;;;;;5027531;28;20049;-61
2023/01/01 05:52:34;;;;;;;6.43;1.55;;;;;;;;;;4995840;28;20049;-62
2023/01/01 05:55:00;;;;;;;2.90;0.68;;;;;;;;;;5014963;28;20046;-62
2023/01/01 05:57:28;;;;;;;7.18;1.25;;;;;;;;;;5006794;28;20043;-61
2023/01/01 05:59:54;;;;;;;3.22;1.00;;;;;;;;;;4993293;28;20046;-62
2023/01/01 06:02:21;;;;;;;5.88;1.33;;;;;;;;;;5022792;28;20049;-61
2023/01/01 06:04:47;;;;;;;5.60;1.08;;;;;;;;;;5033494;28;20053;-62
2023/01/01 06:07:13;;;;;;;1.80;0.70;;;;;;;;;;4996511;28;20132;-62
2023/01/01 06:09:39;;;;;;;3.38;0.80;;;;;;;;;;5010364;28;20049;-63
2023/01/01 06:12:05;;;;;;;4.50;0.95;;;;;;;;;;5008517;28;20053;-61
2023/01/01 06:14:31;;;;;;;5.97;1.48;;;;;;;;;;5007418;28;20049;-62
2023/01/01 06:16:57;;;;;;;10.25;2.25;;;;;;;;;;5013476;28;20398;-62
2023/01/01 06:19:23;;;;;;;9.57;1.08;;;;;;;;;;5020398;28;20723;-62
2023/01/01 06:21:52;;;;;;;11.27;1.58;;;;;;;;;;5012292;28;20406;-62
2023/01/01 06:24:18;;;;;;;3.75;0.73;;;;;;;;;;5015434;28;20038;-61
2023/01/01 06:26:44;;;;;;;7.88;1.05;;;;;;;;;;4996104;28;20078;-61
2023/01/01 06:29:10;;;;;;;6.28;1.13;;;;;;;;;;5008390;28;20140;-62
2023/01/01 06:31:36;;;;;;;9.80;1.77;;;;;;;;;;5000589;28;20056;-61
2023/01/01 06:34:02;;;;;;;5.65;1.30;;;;;;;;;;5029154;28;20453;-62
2023/01/01 06:36:28;;;;;;;7.95;2.20;;;;;;;;;;4994275;28;20490;-61
2023/01/01 06:38:55;;;;;;;12.43;1.48;;;;;;;;;;5012058;28;20120;-61
2023/01/01 06:41:23;;;;;;;7.20;1.20;;;;;;;;;;5007649;28;20451;-61
2023/01/01 06:43:49;;;;;;;12.13;1.63;;;;;;;;;;5012320;28;20091;-61
2023/01/01 06:46:17;;;;;;;10.35;1.52;;;;;;;;;;5022776;28;20129;-61
2023/01/01 06:48:44;;;;;;;8.05;1.30;;;;;;;;;;5022898;28;20038;-62
2023/01/01 06:51:11;;;;;;;10.40;1.58;;;;;;;;;;5011987;28;20054;-61
2023/01/01 06:53:38;;;;;;;11.20;1.90;;;;;;;;;;5012285;28;20104;-62
2023/01/01 06:56:04;;;;;;;7.95;1.88;;;;;;;;;;5025648;28;20053;-61
2023/01/01 06:58:31;;;;;;;10.80;1.77;;;;;;;;;;5020654;28;20048;-62
2023/01/01 07:01:07;;;;;;;14.23;2.33;;;;;;;;;;4995629;28;20506;-62
2023/01/01 07:03:34;;;;;;;15.40;2.42;;;;;;;;;;5010564;28;20125;-61
2023/01/01 07:06:00;;;;;;;14.52;1.60;;;;;;;;;;5025700;28;20049;-62
2023/01/01 07:08:26;;;;;;;6.60;2.10;;;;;;;;;;5027630;28;20096;-62
2023/01/01 07:10:52;;;;;;;10.55;1.83;;;;;;;;;;5031451;28;20049;-62
2023/01/01 07:13:20;;;;;;;16.55;3.08;;;;;;;;;;5004851;28;20494;-61
2023/01/01 07:15:46;;;;;;;17.33;3.83;;;;;;;;;;5026995;28;20053;-61
2023/01/01 07:18:12;;;;;;;15.05;2.05;;;;;;;;;;5010190;28;20857;-61
2023/01/01 07:20:39;;;;;;;12.65;1.85;;;;;;;;;;5010923;28;20096;-62
2023/01/01 07:23:05;;;;;;;10.68;2.15;;;;;;;;;;5073603;22;20485;-62
2023/01/01 07:25:31;;;;;;;11.10;2.13;;;;;;;;;;5066069;28;20059;-61
2023/01/01 07:27:57;;;;;;;12.63;2.55;;;;;;;;;;5069674;28;20041;-61
2023/01/01 07:30:23;;;;;;;9.05;1.50;;;;;;;;;;5070576;28;20045;-61
2023/01/01 07:32:54;;;;;;;18.80;2.38;;;;;;;;;;5045164;28;20049;-61
2023/01/01 07:35:20;;;;;;;7.93;1.60;;;;;;;;;;5067694;28;20048;-62
2023/01/01 07:37:46;;;;;;;9.75;2.53;;;;;;;;;;5067536;28;20051;-61
2023/01/01 07:40:12;;;;;;;10.10;1.67;;;;;;;;;;5053363;28;20048;-60
2023/01/01 07:42:38;;;;;;;10.88;1.83;;;;;;;;;;5100878;22;20048;-61
2023/01/01 07:45:04;;;;;;;15.38;3.08;;;;;;;;;;5023399;28;20053;-62
2023/01/01 07:47:32;;;;;;;16.60;2.55;;;;;;;;;;4994588;28;20046;-61
2023/01/01 07:49:58;;;;;;;11.68;2.83;;;;;;;;;;5014871;28;20353;-61
2023/01/01 07:52:24;;;;;;;10.13;1.40;;;;;;;;;;5007669;28;20056;-61
2023/01/01 07:54:50;;;;;;;17.88;3.08;;;;;;;;;;4966958;28;20430;-61
2023/01/01 07:57:16;;;;;;;11.85;2.17;;;;;;;;;;4997675;28;20530;-61
2023/01/01 07:59:43;;;;;;;21.75;2.83;;;;;;;;;;5014608;28;20053;-61
2023/01/01 08:02:11;;;;;;;17.40;2.33;;;;;;;;;;5015448;28;20080;-61
2023/01/01 08:04:37;;;;;;;16.25;2.90;;;;;;;;;;4998317;28;20042;-62
2023/01/01 08:07:04;;;;;;;16.02;1.85;;;;;;;;;;5012148;28;20404;-62
2023/01/01 08:09:30;;;;;;;13.27;2.20;;;;;;;;;;5014868;28;20061;-61
2023/01/01 08:11:59;;;;;;;15.20;2.20;;;;;;;;;;4997374;28;20056;-61
2023/01/01 08:14:25;;;;;;;15.48;2.28;;;;;;;;;;5018362;28;20505;-61
2023/01/01 08:16:51;;;;;;;14.15;3.33;;;;;;;;;;5034032;28;20122;-61
2023/01/01 08:19:17;;;;;;;9.43;1.48;;;;;;;;;;5034654;28;20049;-62
2023/01/01 08:21:45;;;;;;;13.13;3.55;;;;;;;;;;4987566;28;20513;-62
2023/01/01 08:24:14;;;;;;;14.45;2.00;;;;;;;;;;5018104;28;20520;-62
2023/01/01 08:26:40;;;;;;;19.15;2.72;;;;;;;;;;5013619;28;20517;-63
2023/01/01 08:29:06;;;;;;;8.57;1.55;;;;;;;;;;4980850;28;20411;-62
2023/01/01 08:31:33;;;;;;;19.50;2.67;;;;;;;;;;5013402;28;20256;-63
2023/01/01 08:33:59;;;;;;;11.38;2.63;;;;;;;;;;5008200;28;20057;-63
2023/01/01 08:36:25;;;;;;;16.58;3.17;;;;;;;;;;5014866;28;20045;-62
2023/01/01 08:38:51;;;;;;;16.65;2.38;;;;;;;;;;5033762;28;20081;-63
2023/01/01 08:41:17;;;;;;;19.75;2.58;;;;;;;;;;4980133;28;20088;-62
2023/01/01 08:43:43;;;;;;;15.93;3.90;;;;;;;;;;5017051;28;20061;-62
2023/01/01 08:46:09;;;;;;;18.20;3.45;;;;;;;;;;5002093;28;20382;-62
2023/01/01 08:48:35;;;;;;;17.27;3.13;;;;;;;;;;5033915;28;20494;-62
2023/01/01 08:51:01;;;;;;;9.80;1.92;;;;;;;;;;5009563;28;20041;-62
2023/01/01 08:53:28;;;;;;;14.25;2.53;;;;;;;;;;5003510;28;20064;-62
2023/01/01 08:56:04;;;;;;;16.67;2.88;;;;;;;;;;5011068;28;20388;-62
2023/01/01 08:58:30;;;;;;;9.30;1.95;;;;;;;;;;5028134;28;20033;-62
2023/01/01 09:00:58;;;;;;;14.82;3.08;;;;;;;;;;5020926;28;20495;-62
2023/01/01 09:03:24;;;;;;;12.38;2.90;;;;;;;;;;4999665;28;20060;-62
2023/01/01 09:05:50;;;;;;;15.40;2.40;;;;;;;;;;5012662;28;20053;-62
2023/01/01 09:08:20;;;;;;;14.70;3.35;;;;;;;;;;5009200;28;20046;-62
2023/01/01 09:10:46;;;;;;;20.42;2.47;;;;;;;;;;5003420;28;20061;-62
2023/01/01 09:13:14;;;;;;;15.77;2.72;;;;;;;;;;5022918;28;20050;-62
2023/01/01 09:15:41;;;;;;;19.08;2.80;;;;;;;;;;5017274;28;20049;-63
2023/01/01 09:18:08;;;;;;;20.55;3.28;;;;;;;;;;5015533;28;20422;-62
2023/01/01 09:20:34;;;;;;;17.00;4.10;;;;;;;;;;5010761;28;20050;-62
2023/01/01 09:23:00;;;;;;;13.48;3.25;;;;;;;;;;5012339;28;20085;-62
2023/01/01 09:25:27;;;;;;;18.88;3.15;;;;;;;;;;5013626;28;20089;-62
2023/01/01 09:27:56;;;;;;;14.88;2.20;;;;;;;;;;4994190;28;20057;-62
2023/01/01 09:30:23;;;;;;;19.33;2.67;;;;;;;;;;5018824;28;20691;-62
2023/01/01 09:32:49;;;;;;;14.95;2.38;;;;;;;;;;4994821;28;20049;-62
2023/01/01 09:35:15;;;;;;;19.30;3.30;;;;;;;;;;4997782;28;20136;-62
2023/01/01 09:37:41;;;;;;;19.55;3.28;;;;;;;;;;5012707;28;20050;-62
2023/01/01 09:40:08;;;;;;;21.85;3.72;;;;;;;;;;4986870;28;20064;-62
2023/01/01 09:42:34;;;;;;;22.95;2.97;;;;;;;;;;4983944;28;20053;-62
2023/01/01 09:45:09;;;;;;;12.15;2.67;;;;;;;;;;5015194;28;20052;-62
2023/01/01 09:47:37;;;;;;;14.27;3.05;;;;;;;;;;5015647;28;20045;-62
2023/01/01 09:50:05;;;;;;;18.45;3.72;;;;;;;;;;5032562;28;20046;-61
2023/01/01 09:52:50;;;;;;;18.08;2.15;;;;;;;;;;5017224;28;20053;-62
2023/01/01 09:55:47;;;;;;;12.52;2.95;;;11.50;99.90;;;;;;5000790;28;20050;-62
2023/01/01 09:58:14;;;;;;;19.52;3.17;;;;;;;;;;4988163;28;20058;-62
2023/01/01 10:00:44;;;;;;;12.32;2.40;;;;;;;;;;4992811;28;20388;-63
2023/01/01 10:03:25;;;;;;;12.10;1.80;;;;;;;;;;5014871;28;20080;-62
2023/01/01 10:05:59;;;;;;;15.55;2.53;;;;;;;;;;5020168;28;20060;-62
2023/01/01 10:08:34;;;;;;;14.00;2.60;;;;;;;;;;5002571;28;20041;-62
2023/01/01 10:11:08;;;;;;;19.38;2.40;;;;;;;;;;5006454;28;20132;-62
2023/01/01 10:13:37;;;;;;;16.45;2.13;;;;;;;;;;5004361;28;20085;-62
2023/01/01 10:16:07;;;;;;;8.70;2.10;;;;;;;;;;5032000;28;20501;-62
2023/01/01 10:18:36;;;;;;;13.50;3.25;;;;;;;;;;5013201;28;20133;-61
2023/01/01 10:21:06;;;;;;;21.70;2.70;;;;;;;;;;5012275;28;20057;-62
2023/01/01 10:23:35;;;;;;;14.32;1.92;;;;;;;;;;5009712;28;20065;-62
2023/01/01 10:26:07;;;;;;;14.07;2.17;;;;;;;;;;5023878;28;20053;-62
2023/01/01 10:28:39;;;;;;;14.93;2.60;;;;;;;;;;5012785;28;20042;-62
2023/01/01 10:31:29;;;;;;;12.30;2.10;;;;;;;;;;5012611;28;20049;-62
2023/01/01 10:33:55;;;;;;;11.52;2.65;;;;;;;;;;5000730;28;20072;-62
2023/01/01 10:36:21;;;;;;;12.88;2.33;;;;;;;;;;5010253;28;20569;-63
2023/01/01 10:38:48;;;;;;;15.48;3.35;;;;;;;;;;5023764;28;20311;-62
2023/01/01 10:41:16;;;;;;;11.20;1.73;;;;;;;;;;5030584;28;20052;-62
2023/01/01 10:43:42;;;;;;;14.73;2.53;;;;;;;;;;5014847;28;20149;-62
2023/01/01 10:46:12;;;;;;;17.55;3.60;;;;;;;;;;4996831;28;20132;-62
2023/01/01 10:48:38;;;;;;;15.20;1.77;;;;;;;;;;4995273;28;20510;-62
2023/01/01 10:51:13;;;;;;;14.50;2.28;;;;;;;;;;5003278;28;20038;-62
2023/01/01 10:53:41;;;;;;;13.95;2.17;;;;;;;;;;4996038;28;20094;-63
2023/01/01 10:56:10;;;;;;;10.27;1.60;;;;;;;;;;4994572;28;20053;-62
2023/01/01 10:58:42;;;;;;;9.40;1.90;;;;;;;;;;5027951;28;20041;-61
2023/01/01 11:01:10;;;;;;;16.33;2.45;;;;;;;;;;5023967;28;20418;-62
2023/01/01 11:03:36;;;;;;;14.38;2.13;;;;;;;;;;5013203;28;20115;-62
2023/01/01 11:06:05;;;;;;;13.88;2.13;;;;;;;;;;5015216;28;20124;-62
2023/01/01 11:08:37;;;;;;;13.00;2.75;;;;;;;;;;5025431;28;20047;-61
2023/01/01 11:11:03;;;;;;;13.00;2.28;;;;;;;;;;5010809;28;20046;-62
2023/01/01 11:13:30;;;;;;;19.88;1.90;;;;;;;;;;4977883;28;20050;-62
2023/01/01 11:15:57;;;;;;;12.20;1.80;;;;;;;;;;4994233;28;20053;-62
2023/01/01 11:18:26;;;;;;;10.20;2.85;;;;;;;;;;4994456;28;20042;-62
2023/01/01 11:20:56;;;;;;;13.05;2.28;;;;;;;;;;4993476;28;20085;-62
2023/01/01 11:23:30;;;;;;;13.07;1.77;;;;;;;;;;5008095;28;20049;-63
2023/01/01 11:25:57;;;;;;;19.05;2.10;;;;;;;;;;5035124;28;20470;-62
2023/01/01 11:28:24;;;;;;;15.50;2.05;;;;;;;;;;5021277;28;20770;-62
2023/01/01 11:31:09;;;;;;;16.58;2.08;;;;;;;;;;5014953;28;20049;-61
2023/01/01 11:33:37;;;;;;;10.45;2.90;;;;;;;;;;5000719;28;20060;-62
2023/01/01 11:36:04;;;;;;;11.45;1.83;;;;;;;;;;5014637;28;20403;-62
2023/01/01 11:38:30;;;;;;;19.40;2.13;;;;;;;;;;5015081;28;20081;-61
2023/01/01 11:41:02;;;;;;;19.73;2.88;;;;;;;;;;5015380;28;20045;-61
2023/01/01 11:43:31;;;;;;;18.48;3.40;;;;;;;;;;4985422;28;20053;-61
2023/01/01 11:45:57;;;;;;;14.57;3.00;;;;;;;;;;4997847;28;20050;-61
2023/01/01 11:48:29;;;;;;;14.18;2.15;;;;;;;;;;5010959;28;20049;-61
2023/01/01 11:50:56;;;;;;;7.00;1.75;;;;;;;;;;5016012;28;20494;-62
2023/01/01 11:53:22;;;;;;;19.92;2.60;;;;;;;;;;5018685;28;20050;-62
2023/01/01 11:55:53;;;;;;;11.38;2.13;;;;;;;;;;5000668;28;20520;-61
2023/01/01 11:58:26;;;;;;;9.50;2.25;;;;;;;;;;5034860;28;20482;-61
2023/01/01 12:00:54;;;;;;;13.45;1.83;;;;;;;;;;5019502;28;20049;-62
2023/01/01 12:03:39;;;;;;;11.48;2.30;;;;;;;;;;5002251;28;20053;-61
2023/01/01 12:06:28;;;;;;;11.25;2.53;;;12.50;99.90;;;;;;5013591;28;20050;-61
2023/01/01 12:08:54;;;;;;;14.00;2.00;;;;;;;;;;4996693;28;20073;-61
2023/01/01 12:11:23;;;;;;;13.43;2.10;;;;;;;;;;5014591;28;20092;-62
2023/01/01 12:13:58;;;;;;;15.75;2.40;;;;;;;;;;5033061;28;20506;-62
2023/01/01 12:16:59;;;;;;;9.98;1.90;;;12.60;99.90;;;;;;5010447;28;20470;-62
2023/01/01 12:19:35;;;;;;;15.73;1.70;;;;;;;;;;4995107;28;20054;-61
2023/01/01 12:22:01;;;;;;;18.10;3.25;;;;;;;;;;5019604;28;20047;-61
2023/01/01 12:24:32;;;;;;;12.05;2.40;;;;;;;;;;5028117;28;20505;-61
2023/01/01 12:27:42;;;;;;;13.57;2.30;;;12.50;99.90;;;;;;5013546;28;20132;-61
2023/01/01 12:30:28;;;;;;;;;;;12.30;99.90;;;;;;5011610;28;20533;-61
2023/01/01 12:33:03;;;;;;;12.45;2.38;;;;;;;;;;4996493;28;20382;-61
2023/01/01 12:35:48;;;;;;;11.38;2.13;;;;;;;;;;5014024;28;20068;-61
2023/01/01 12:38:22;;;;;;;12.18;2.22;;;;;;;;;;5013425;28;20089;-61
2023/01/01 12:40:51;;;;;;;9.75;2.10;;;;;;;;;;5013737;28;20046;-61
2023/01/01 12:43:17;;;;;;;16.65;2.22;;;;;;;;;;5012478;28;20514;-61
2023/01/01 12:45:43;;;;;;;9.50;1.58;;;;;;;;;;5013689;28;20086;-61
2023/01/01 12:48:15;;;;;;;11.07;2.00;;;;;;;;;;5014352;28;20082;-61
2023/01/01 12:50:49;;;;;;;12.63;1.95;;;;;;;;;;5015119;28;20414;-61
2023/01/01 12:53:19;;;;;;;11.18;2.03;;;;;;;;;;5014718;28;20124;-62
2023/01/01 12:55:54;;;;;;;8.68;1.20;;;;;;;;;;5000087;28;20050;-61
2023/01/01 12:58:35;;;;;;;13.15;1.95;;;;;;;;;;5000269;28;20076;-61
2023/01/01 13:01:17;;;;;;;10.98;1.90;;;;;;;;;;5012461;28;20084;-62
2023/01/01 13:03:57;;;;;;;12.77;1.85;;;;;;;;;;4996147;28;20103;-62
2023/01/01 13:06:27;;;;;;;12.68;3.13;;;;;;;;;;5013343;28;20041;-61
2023/01/01 13:09:00;;;;;;;13.30;2.13;;;;;;;;;;5013591;28;20053;-61
2023/01/01 13:11:26;;;;;;;14.48;2.25;;;;;;;;;;5016303;28;20046;-62
2023/01/01 13:13:52;;;;;;;12.77;2.28;;;;;;;;;;5033242;28;20045;-62
2023/01/01 13:16:38;;;;;;;13.50;2.10;;;;;;;;;;5017822;28;20431;-62
2023/01/01 13:19:04;;;;;;;10.85;2.00;;;;;;;;;;5013001;28;20092;-61
2023/01/01 13:21:31;;;;;;;13.32;2.35;;;;;;;;;;4998778;28;20052;-61
2023/01/01 13:24:00;;;;;;;11.98;2.35;;;;;;;;;;4997669;28;20104;-61
2023/01/01 13:26:26;;;;;;;13.20;2.42;;;;;;;;;;5017087;28;20061;-61
2023/01/01 13:28:55;;;;;;;10.40;2.47;;;;;;;;;;4995740;28;20045;-62
2023/01/01 13:31:48;;;;;;;12.75;2.50;;;;;;;;;;4997683;28;20054;-61
2023/01/01 13:34:34;;;;;;;11.27;3.42;;;;;;;;;;5001076;28;20054;-61
2023/01/01 13:37:19;;;;;;;15.18;2.72;;;;;;;;;;5011860;28;20053;-61
2023/01/01 13:39:56;;;;;;;14.20;2.38;;;;;;;;;;4995412;28;20045;-62
2023/01/01 13:42:41;;;;;;;13.82;2.70;;;;;;;;;;5007321;28;20081;-62
2023/01/01 13:45:12;;;;;;;13.98;3.08;;;;;;;;;;5008705;28;20050;-61
2023/01/01 13:47:50;;;;;;;12.02;2.42;;;;;;;;;;5012685;28;20410;-61
2023/01/01 13:50:23;;;;;;;9.88;2.58;;;;;;;;;;5023074;28;20402;-61
2023/01/01 13:52:58;;;;;;;17.85;3.92;;;;;;;;;;5001274;28;20121;-61
2023/01/01 13:55:42;;;;;;;10.95;2.35;;;;;;;;;;5013031;28;20050;-61
2023/01/01 13:58:23;;;;;;;16.33;2.88;;;;;;;;;;4994205;28;20126;-62
2023/01/01 14:01:18;;;;;;;13.40;2.10;;;;;;;;;;5011561;28;20476;-62
2023/01/01 14:03:49;;;;;;;16.98;2.72;;;;;;;;;;5008214;28;20057;-62
2023/01/01 14:06:18;;;;;;;16.85;3.10;;;;;;;;;;4994277;28;20046;-62
2023/01/01 14:08:44;;;;;;;12.20;2.72;;;;;;;;;;5010526;28;20049;-61
2023/01/01 14:11:21;;;;;;;18.52;2.88;;;;;;;;;;5011876;28;20091;-61
2023/01/01 14:13:47;;;;;;;14.80;2.42;;;;;;;;;;4978838;28;20045;-62
2023/01/01 14:16:14;;;;;;;11.02;2.63;;;;;;;;;;4994704;28;20115;-61
2023/01/01 14:18:40;;;;;;;13.50;4.30;;;;;;;;;;5011657;28;20042;-62
2023/01/01 14:21:18;;;;;;;15.90;2.55;;;;;;;;;;5019199;28;20046;-61
2023/01/01 14:23:46;;;;;;;16.35;3.03;;;;;;;;;;5031926;28;20046;-62
2023/01/01 14:26:13;;;;;;;14.60;2.97;;;;;;;;;;5028340;28;20193;-61
2023/01/01 14:28:39;;;;;;;11.45;2.97;;;;;;;;;;5010826;28;20112;-63
2023/01/01 14:31:13;;;;;;;19.17;4.20;;;;;;;;;;5014549;28;20042;-61
2023/01/01 14:33:39;;;;;;;18.50;3.50;;;;;;;;;;5011372;28;20553;-64
2023/01/01 14:36:13;;;;;;;16.63;2.42;;;;;;;;;;4994695;28;20050;-61
2023/01/01 14:38:43;;;;;;;18.13;3.22;;;;;;;;;;5011158;28;20049;-63
2023/01/01 14:41:09;;;;;;;15.32;3.00;;;;;;;;;;5023812;28;20059;-62
2023/01/01 14:43:36;;;;;;;19.35;4.00;;;;;;;;;;5024523;28;20058;-61
2023/01/01 14:46:02;;;;;;;20.73;2.72;;;;;;;;;;5010830;28;20097;-61
2023/01/01 14:48:28;;;;;;;17.73;2.63;;;;;;;;;;5015249;28;20049;-61